Time;durP1;ratioP1;P1;durP2;ratioP2;P2;SDS_P1;SDS_P2;PMS_P1;PMS_P2;Temp;Humidity;BMP_temperature;BMP_pressure;BME280_temperature;BME280_humidity;BME280_pressure;Samples;Min_cycle;Max_cycle;Signal;HPM_P1;HPM_P2
2024/03/12 00:02:58;;;;;;;10.23;7.75;;;23.70;51.40;;;;;;6164724;28;80830;-60
2024/03/12 00:05:59;;;;;;;12.70;8.85;;;23.70;51.30;;;;;;6158076;28;80244;-59
2024/03/12 00:09:00;;;;;;;10.57;7.70;;;23.70;51.40;;;;;;6172891;28;81573;-57
2024/03/12 00:12:00;;;;;;;12.20;8.13;;;23.70;51.40;;;;;;6157955;28;81697;-55
2024/03/12 00:15:00;;;;;;;13.00;8.68;;;23.70;51.40;;;;;;6175131;28;80586;-57
2024/03/12 00:18:05;;;;;;;10.05;8.02;;;23.70;51.40;;;;;;6170752;28;80511;-55
2024/03/12 00:21:05;;;;;;;11.43;8.13;;;23.70;51.30;;;;;;6175396;28;80830;-54
2024/03/12 00:24:06;;;;;;;8.63;6.90;;;23.70;51.30;;;;;;6188089;28;80867;-58
2024/03/12 00:27:06;;;;;;;10.82;7.60;;;23.70;51.20;;;;;;6176020;28;80678;-58
2024/03/12 00:30:10;;;;;;;11.02;8.20;;;23.70;51.40;;;;;;6175912;28;80909;-58
2024/03/12 00:33:10;;;;;;;12.40;8.10;;;23.70;51.50;;;;;;6183159;28;88125;-59
2024/03/12 00:36:13;;;;;;;10.80;7.80;;;23.70;51.30;;;;;;6175072;28;81702;-58
2024/03/12 00:39:13;;;;;;;10.23;7.63;;;23.70;51.20;;;;;;6176257;28;80526;-59
2024/03/12 00:42:14;;;;;;;12.05;7.60;;;23.70;51.30;;;;;;6175660;28;81351;-61
2024/03/12 00:45:19;;;;;;;11.05;7.80;;;23.70;51.20;;;;;;6175956;28;80814;-60
2024/03/12 00:48:20;;;;;;;10.57;7.38;;;23.70;51.20;;;;;;6175553;28;80428;-60
2024/03/12 00:51:22;;;;;;;9.90;7.70;;;23.70;51.20;;;;;;6175736;28;81631;-61
2024/03/12 00:54:24;;;;;;;10.05;7.38;;;23.70;51.10;;;;;;6180085;28;80227;-61
2024/03/12 00:57:27;;;;;;;9.77;7.55;;;23.70;51.20;;;;;;6182742;28;81018;-62
2024/03/12 01:00:33;;;;;;;10.00;7.28;;;23.70;51.20;;;;;;6190922;28;80183;-58
2024/03/12 01:03:34;;;;;;;9.98;7.35;;;23.70;51.10;;;;;;6180926;28;80930;-57
2024/03/12 01:06:34;;;;;;;12.38;7.82;;;23.70;51.50;;;;;;6178261;28;81677;-57
2024/03/12 01:09:39;;;;;;;10.85;7.68;;;23.70;51.20;;;;;;6178895;28;80327;-57
2024/03/12 01:12:39;;;;;;;10.90;7.50;;;23.70;51.20;;;;;;6178344;28;81233;-58
2024/03/12 01:15:40;;;;;;;12.90;8.73;;;23.70;51.20;;;;;;6179912;28;80510;-59
2024/03/12 01:18:41;;;;;;;11.10;6.63;;;23.70;51.20;;;;;;6179889;28;82774;-56
2024/03/12 01:21:41;;;;;;;9.55;7.20;;;23.70;51.20;;;;;;6179358;28;81881;-57
2024/03/12 01:24:42;;;;;;;13.07;8.27;;;23.70;51.20;;;;;;6180921;28;81941;-58
2024/03/12 01:27:42;;;;;;;12.27;7.82;;;23.70;51.10;;;;;;6179675;28;80865;-58
2024/03/12 01:30:44;;;;;;;9.65;7.45;;;23.70;51.00;;;;;;6180190;28;81448;-57
2024/03/12 01:33:44;;;;;;;9.10;7.00;;;23.70;51.00;;;;;;6171753;28;91722;-57
2024/03/12 01:36:47;;;;;;;11.57;7.45;;;23.70;51.20;;;;;;6184141;28;80474;-57
2024/03/12 01:39:52;;;;;;;9.35;7.07;;;23.70;50.90;;;;;;6179666;28;81575;-67
2024/03/12 01:42:53;;;;;;;10.83;7.90;;;23.70;50.90;;;;;;6181121;28;80264;-68
2024/03/12 01:45:54;;;;;;;11.45;7.60;;;23.70;50.90;;;;;;6191329;28;80915;-68
2024/03/12 01:48:54;;;;;;;10.75;7.40;;;23.60;50.80;;;;;;6187987;28;80810;-66
2024/03/12 01:51:55;;;;;;;9.18;7.13;;;23.60;50.80;;;;;;6179951;28;81162;-66
2024/03/12 01:54:55;;;;;;;12.32;8.30;;;23.60;50.70;;;;;;6168545;28;81101;-67
2024/03/12 01:57:56;;;;;;;12.27;7.72;;;23.60;50.70;;;;;;6179378;28;80544;-57
2024/03/12 02:00:57;;;;;;;12.30;7.88;;;23.60;50.70;;;;;;6177493;28;82171;-57
2024/03/12 02:03:58;;;;;;;12.95;8.77;;;23.60;50.60;;;;;;6177168;28;81061;-58
2024/03/12 02:06:59;;;;;;;13.00;8.40;;;23.60;50.70;;;;;;6178579;28;80522;-57
2024/03/12 02:09:59;;;;;;;11.38;8.10;;;23.60;50.70;;;;;;6177393;28;80229;-58
2024/03/12 02:13:00;;;;;;;12.05;7.95;;;23.60;50.70;;;;;;6178402;28;81422;-58
2024/03/12 02:16:00;;;;;;;11.48;8.35;;;23.60;50.80;;;;;;6177695;28;80832;-60
2024/03/12 02:19:01;;;;;;;11.57;7.50;;;23.60;50.60;;;;;;6190481;28;80315;-59
2024/03/12 02:22:01;;;;;;;11.65;7.60;;;23.60;51.30;;;;;;6178650;28;81191;-60
2024/03/12 02:25:03;;;;;;;11.55;7.55;;;23.60;50.60;;;;;;6179405;28;80986;-59
2024/03/12 02:28:03;;;;;;;8.82;7.28;;;23.60;50.70;;;;;;6189512;28;80832;-60
2024/03/12 02:31:07;;;;;;;8.55;6.90;;;23.60;50.70;;;;;;6179125;28;80550;-60
2024/03/12 02:34:07;;;;;;;12.35;7.97;;;23.60;50.60;;;;;;6188484;28;80779;-67
2024/03/12 02:37:08;;;;;;;10.60;8.13;;;23.60;51.30;;;;;;6182340;28;80766;-65
2024/03/12 02:40:15;;;;;;;10.35;8.07;;;23.60;50.60;;;;;;6191443;28;81911;-67
2024/03/12 02:43:15;;;;;;;10.93;7.63;;;23.60;50.70;;;;;;6182439;28;81008;-66
2024/03/12 02:46:16;;;;;;;9.35;7.47;;;23.60;50.60;;;;;;6180953;28;80883;-67
2024/03/12 02:49:17;;;;;;;11.27;7.32;;;23.60;50.60;;;;;;6190098;28;80701;-68
2024/03/12 02:52:17;;;;;;;10.20;7.25;;;23.60;50.70;;;;;;6204754;28;80618;-57
2024/03/12 02:55:19;;;;;;;11.65;8.45;;;23.60;50.70;;;;;;6178739;28;81596;-57
2024/03/12 02:58:25;;;;;;;9.50;7.40;;;23.60;50.80;;;;;;6176803;28;81621;-58
2024/03/12 03:01:25;;;;;;;12.68;7.88;;;23.60;50.70;;;;;;6178160;28;82047;-58
2024/03/12 03:04:27;;;;;;;10.48;7.65;;;23.60;50.80;;;;;;6178025;28;80807;-59
2024/03/12 03:07:27;;;;;;;11.32;8.05;;;23.60;50.80;;;;;;6177533;28;83476;-59
2024/03/12 03:10:28;;;;;;;12.65;8.00;;;23.60;50.90;;;;;;6177370;28;81447;-58
2024/03/12 03:13:28;;;;;;;10.10;7.28;;;23.60;50.80;;;;;;6177246;28;80885;-57
2024/03/12 03:16:31;;;;;;;9.65;7.38;;;23.60;50.90;;;;;;6176702;28;80865;-59
2024/03/12 03:19:31;;;;;;;11.98;8.15;;;23.60;51.00;;;;;;6177971;28;81002;-57
2024/03/12 03:22:32;;;;;;;10.52;7.45;;;23.60;50.80;;;;;;6178404;28;80670;-58
2024/03/12 03:25:33;;;;;;;8.48;6.97;;;23.60;50.80;;;;;;6177684;28;80233;-58
2024/03/12 03:28:33;;;;;;;11.10;8.10;;;23.60;51.00;;;;;;6177090;28;80882;-58
2024/03/12 03:31:34;;;;;;;10.05;7.88;;;23.60;51.00;;;;;;6174794;28;80494;-59
2024/03/12 03:34:37;;;;;;;11.88;7.65;;;23.60;50.90;;;;;;6176815;28;80883;-59
2024/03/12 03:37:40;;;;;;;11.75;8.52;;;23.60;51.00;;;;;;6184479;28;81706;-60
2024/03/12 03:40:40;;;;;;;10.85;7.68;;;23.60;51.00;;;;;;6176604;28;85433;-60
2024/03/12 03:43:42;;;;;;;9.18;7.00;;;23.60;51.20;;;;;;6176429;28;80588;-59
2024/03/12 03:46:43;;;;;;;9.88;7.60;;;23.60;51.10;;;;;;6176952;28;80283;-58
2024/03/12 03:49:46;;;;;;;11.02;7.55;;;23.60;50.90;;;;;;6163464;28;81686;-59
2024/03/12 03:52:47;;;;;;;14.88;7.93;;;23.60;51.00;;;;;;6185657;28;81465;-56
2024/03/12 03:55:49;;;;;;;12.52;8.38;;;23.60;51.00;;;;;;6176762;28;80266;-59
2024/03/12 03:58:49;;;;;;;10.15;7.40;;;23.60;50.90;;;;;;6176948;28;81447;-56
2024/03/12 04:01:50;;;;;;;9.82;7.25;;;23.60;50.70;;;;;;6174623;28;80917;-58
2024/03/12 04:04:50;;;;;;;10.98;7.60;;;23.60;51.00;;;;;;6176213;28;80827;-60
2024/03/12 04:07:51;;;;;;;10.45;7.97;;;23.60;50.80;;;;;;6172394;28;80686;-59
2024/03/12 04:10:51;;;;;;;12.15;7.80;;;23.60;51.10;;;;;;6176288;28;81699;-60
2024/03/12 04:13:54;;;;;;;9.52;7.18;;;23.60;51.10;;;;;;6176217;28;81753;-60
2024/03/12 04:16:55;;;;;;;13.07;8.05;;;23.60;51.40;;;;;;6176558;28;81065;-59
2024/03/12 04:19:55;;;;;;;12.48;8.00;;;23.60;50.70;;;;;;6177142;28;81296;-61
2024/03/12 04:22:56;;;;;;;11.85;7.80;;;23.60;50.90;;;;;;6177685;28;80592;-70
2024/03/12 04:25:56;;;;;;;10.57;7.53;;;23.60;51.00;;;;;;6186974;28;80506;-64
2024/03/12 04:28:57;;;;;;;10.35;6.75;;;23.60;51.00;;;;;;6180060;28;80512;-65
2024/03/12 04:31:57;;;;;;;10.40;7.75;;;23.60;50.70;;;;;;6197124;28;80615;-70
2024/03/12 04:34:58;;;;;;;11.48;7.50;;;23.60;50.50;;;;;;6199286;28;80636;-64
2024/03/12 04:37:59;;;;;;;11.70;7.10;;;23.70;50.60;;;;;;6188952;28;80421;-63
2024/03/12 04:41:00;;;;;;;11.45;6.78;;;23.70;50.70;;;;;;6189896;28;80657;-58
2024/03/12 04:44:01;;;;;;;8.80;6.72;;;23.70;50.50;;;;;;6180382;28;80316;-58
2024/03/12 04:47:01;;;;;;;8.98;6.85;;;23.70;50.50;;;;;;6178771;28;81167;-60
2024/03/12 04:50:03;;;;;;;11.50;7.70;;;23.80;50.70;;;;;;6179467;28;80414;-59
2024/03/12 04:53:03;;;;;;;12.27;6.65;;;23.80;50.70;;;;;;6180152;28;80262;-59
2024/03/12 04:56:04;;;;;;;10.80;7.05;;;23.80;50.70;;;;;;6181335;28;80692;-59
2024/03/12 04:59:05;;;;;;;11.55;6.50;;;23.80;50.70;;;;;;6178669;28;81395;-55
2024/03/12 05:02:06;;;;;;;9.57;7.00;;;23.80;51.10;;;;;;6177532;28;80903;-59
2024/03/12 05:05:11;;;;;;;11.02;7.55;;;23.90;50.90;;;;;;6187624;28;81179;-59
2024/03/12 05:08:11;;;;;;;14.10;7.73;;;23.90;50.90;;;;;;6180911;28;82591;-58
2024/03/12 05:11:12;;;;;;;9.73;6.72;;;23.90;51.10;;;;;;6179435;28;81603;-60
2024/03/12 05:14:12;;;;;;;10.98;6.72;;;24.00;51.50;;;;;;6177878;28;81365;-56
2024/03/12 05:17:13;;;;;;;11.18;6.55;;;24.00;52.10;;;;;;6185837;28;80852;-58
2024/03/12 05:20:17;;;;;;;9.38;6.72;;;24.00;52.40;;;;;;6184542;28;80573;-58
2024/03/12 05:23:18;;;;;;;14.65;6.97;;;24.00;52.50;;;;;;6177579;28;80551;-59
2024/03/12 05:26:18;;;;;;;12.45;6.50;;;24.00;52.90;;;;;;6178969;28;84195;-58
2024/03/12 05:29:19;;;;;;;12.13;6.72;;;24.00;52.60;;;;;;6179173;28;80366;-58
2024/03/12 05:32:21;;;;;;;12.52;6.38;;;24.00;52.30;;;;;;6178656;28;80467;-56
2024/03/12 05:35:22;;;;;;;15.43;7.45;;;24.10;52.70;;;;;;6179410;28;80610;-57
2024/03/12 05:39:18;;;;;;;15.15;7.65;;;24.10;52.80;;;;;;6178139;28;80479;-64
2024/03/12 05:48:06;;;;;;;16.75;8.02;;;24.10;52.90;;;;;;6173438;28;82793;-65
2024/03/12 05:48:29;;;;;;;11.60;6.47;;;24.10;52.70;;;;;;6180444;28;80742;-67
2024/03/12 05:51:31;;;;;;;15.43;6.85;;;24.10;52.50;;;;;;6179120;28;80420;-67
2024/03/12 05:54:32;;;;;;;13.98;7.40;;;24.00;52.30;;;;;;6175398;28;80559;-59
2024/03/12 05:57:33;;;;;;;13.68;7.55;;;24.00;52.30;;;;;;6176028;28;80910;-59
2024/03/12 06:00:33;;;;;;;15.95;7.35;;;24.00;52.20;;;;;;6177577;28;80568;-59
2024/03/12 06:03:37;;;;;;;14.43;7.43;;;24.00;52.10;;;;;;6177277;28;80189;-58
2024/03/12 06:06:37;;;;;;;11.90;6.70;;;24.00;51.90;;;;;;6177864;28;80837;-58
2024/03/12 06:09:38;;;;;;;11.18;6.95;;;23.90;52.40;;;;;;6158684;28;81875;-58
2024/03/12 06:12:38;;;;;;;12.00;7.55;;;23.90;51.60;;;;;;6167128;28;80651;-67
2024/03/12 06:15:39;;;;;;;11.20;7.45;;;23.90;51.50;;;;;;6169858;28;80401;-68
2024/03/12 06:18:39;;;;;;;13.50;7.57;;;23.80;51.30;;;;;;6175258;28;80774;-67
2024/03/12 06:21:40;;;;;;;11.05;6.53;;;23.80;51.30;;;;;;6183443;28;81120;-66
2024/03/12 06:24:40;;;;;;;11.85;6.80;;;23.80;51.20;;;;;;6178526;28;87292;-67
2024/03/12 06:27:41;;;;;;;10.68;7.50;;;23.80;51.10;;;;;;6186981;28;80296;-66
2024/03/12 06:30:43;;;;;;;8.68;7.00;;;23.80;51.10;;;;;;6188810;28;82703;-67
2024/03/12 06:33:43;;;;;;;11.00;6.78;;;23.80;51.00;;;;;;6179884;28;80142;-67
2024/03/12 06:36:44;;;;;;;11.07;7.78;;;23.70;50.80;;;;;;6176042;28;80315;-67
2024/03/12 06:39:44;;;;;;;11.30;7.20;;;23.70;50.80;;;;;;6181839;28;80413;-68
2024/03/12 06:42:45;;;;;;;13.10;7.28;;;23.70;50.80;;;;;;6179345;28;80476;-67
2024/03/12 06:45:46;;;;;;;10.07;7.65;;;23.70;50.80;;;;;;6198720;28;80429;-68
2024/03/12 06:48:47;;;;;;;13.80;7.30;;;23.70;50.70;;;;;;6201685;28;81348;-67
2024/03/12 06:51:47;;;;;;;10.75;7.53;;;23.70;50.70;;;;;;6178340;28;80686;-67
2024/03/12 06:54:50;;;;;;;10.48;7.25;;;23.60;50.50;;;;;;6178843;28;80759;-67
2024/03/12 06:57:53;;;;;;;11.23;6.88;;;23.60;50.50;;;;;;6195896;28;81620;-68
2024/03/12 07:00:55;;;;;;;10.18;7.03;;;23.60;50.40;;;;;;6182167;28;80994;-69
2024/03/12 07:03:57;;;;;;;9.18;6.63;;;23.60;50.30;;;;;;6182804;28;82664;-67
2024/03/12 07:06:57;;;;;;;11.32;7.50;;;23.60;50.20;;;;;;6181729;28;81458;-66
2024/03/12 07:10:02;;;;;;;13.10;7.68;;;23.60;50.20;;;;;;6177157;28;80606;-58
2024/03/12 07:13:04;;;;;;;10.98;7.78;;;23.50;50.10;;;;;;6178180;28;80277;-58
2024/03/12 07:16:04;;;;;;;10.35;7.25;;;23.60;50.20;;;;;;6177435;28;80094;-59
2024/03/12 07:19:05;;;;;;;15.77;7.63;;;23.60;50.20;;;;;;6177365;28;80881;-59
2024/03/12 07:22:08;;;;;;;10.40;7.15;;;23.50;50.00;;;;;;6177614;28;86571;-59
2024/03/12 07:25:10;;;;;;;13.80;7.80;;;23.50;50.10;;;;;;6176055;28;80662;-59
2024/03/12 07:28:12;;;;;;;9.32;6.63;;;23.50;50.00;;;;;;6176363;28;81383;-57
2024/03/12 07:31:14;;;;;;;10.52;7.55;;;23.50;50.00;;;;;;6177225;28;80363;-58
2024/03/12 07:34:15;;;;;;;10.70;7.55;;;23.50;50.00;;;;;;6177223;28;80266;-59
2024/03/12 07:37:17;;;;;;;11.02;7.70;;;23.50;50.10;;;;;;6178348;28;81273;-59
2024/03/12 07:40:17;;;;;;;10.15;7.35;;;23.50;50.00;;;;;;6173896;28;81386;-59
2024/03/12 07:43:18;;;;;;;10.93;7.43;;;23.50;50.00;;;;;;6177398;28;81542;-59
2024/03/12 07:46:18;;;;;;;10.07;7.60;;;23.50;50.00;;;;;;6176671;28;80589;-53
2024/03/12 07:49:22;;;;;;;10.10;7.82;;;23.50;50.00;;;;;;6176313;28;80907;-57
2024/03/12 07:52:23;;;;;;;12.07;7.57;;;23.50;50.00;;;;;;6177803;28;80510;-52
2024/03/12 07:55:25;;;;;;;11.60;8.23;;;23.50;50.00;;;;;;6175833;28;80784;-57
2024/03/12 07:58:28;;;;;;;12.05;7.55;;;23.50;50.00;;;;;;6176604;28;82365;-55
2024/03/12 08:01:29;;;;;;;15.30;7.68;;;23.40;50.00;;;;;;6174481;28;81134;-55
2024/03/12 08:04:29;;;;;;;14.85;8.88;;;23.40;50.00;;;;;;6176115;28;80654;-58
2024/03/12 08:07:30;;;;;;;10.68;7.53;;;23.50;50.00;;;;;;6175401;28;80824;-58
2024/03/12 08:10:31;;;;;;;12.68;7.90;;;23.40;50.00;;;;;;6176492;28;80558;-59
2024/03/12 08:13:31;;;;;;;10.43;7.32;;;23.40;49.90;;;;;;6176633;28;80479;-58
2024/03/12 08:16:32;;;;;;;10.50;7.75;;;23.40;49.90;;;;;;6176248;28;82352;-57
2024/03/12 08:19:33;;;;;;;9.30;7.22;;;23.40;49.90;;;;;;6177014;28;81343;-58
2024/03/12 08:22:34;;;;;;;10.25;7.05;;;23.40;49.90;;;;;;6176358;28;80846;-57
2024/03/12 08:25:34;;;;;;;12.55;7.97;;;23.40;49.90;;;;;;6176545;28;80891;-58
2024/03/12 08:28:35;;;;;;;10.60;7.55;;;23.40;49.90;;;;;;6175528;28;80402;-59
2024/03/12 08:31:38;;;;;;;9.88;7.45;;;23.30;49.80;;;;;;6175686;28;81256;-58
2024/03/12 08:34:38;;;;;;;13.35;8.00;;;23.40;49.90;;;;;;6175985;28;80474;-59
2024/03/12 08:37:39;;;;;;;11.85;8.00;;;23.40;49.90;;;;;;6174588;28;80498;-59
2024/03/12 08:40:39;;;;;;;12.38;8.05;;;23.40;49.90;;;;;;6176960;28;81121;-68
2024/03/12 08:43:40;;;;;;;14.55;8.30;;;23.30;49.80;;;;;;6177501;28;80402;-68
2024/03/12 08:46:41;;;;;;;11.90;7.60;;;23.30;49.80;;;;;;6177597;28;82420;-67
2024/03/12 08:49:41;;;;;;;11.02;8.00;;;23.30;49.80;;;;;;6176704;28;84465;-68
2024/03/12 08:52:42;;;;;;;12.32;7.65;;;23.30;49.70;;;;;;6178385;28;81784;-67
2024/03/12 08:55:43;;;;;;;15.43;8.48;;;23.30;49.70;;;;;;6177218;28;80820;-69
2024/03/12 08:58:43;;;;;;;12.00;8.27;;;23.30;49.70;;;;;;6177535;28;81034;-58
2024/03/12 09:01:44;;;;;;;11.48;7.82;;;23.30;49.70;;;;;;6175987;28;82417;-58
2024/03/12 09:04:45;;;;;;;13.07;8.13;;;23.30;49.80;;;;;;6175446;28;81716;-58
2024/03/12 09:07:46;;;;;;;9.68;7.57;;;23.30;49.70;;;;;;6175514;28;82294;-56
2024/03/12 09:10:47;;;;;;;14.23;7.53;;;23.30;49.80;;;;;;6175950;28;80486;-58
2024/03/12 09:13:48;;;;;;;12.98;8.15;;;23.40;50.00;;;;;;6177995;28;81351;-59
2024/03/12 09:16:49;;;;;;;11.27;7.55;;;23.40;50.20;;;;;;6183014;28;80720;-59
2024/03/12 09:19:49;;;;;;;11.18;7.45;;;23.50;50.10;;;;;;6181395;28;80413;-58
2024/03/12 09:22:50;;;;;;;10.48;7.57;;;23.50;50.20;;;;;;6180119;28;80286;-59
2024/03/12 09:25:51;;;;;;;11.20;8.20;;;23.50;50.10;;;;;;6180649;28;80894;-59
2024/03/12 09:28:51;;;;;;;12.23;7.70;;;23.50;49.90;;;;;;6180029;28;81321;-57
2024/03/12 09:31:52;;;;;;;11.98;8.05;;;23.50;49.90;;;;;;6178854;28;81514;-58
2024/03/12 09:34:52;;;;;;;13.50;8.32;;;23.60;49.90;;;;;;6180016;28;81480;-58
2024/03/12 09:37:53;;;;;;;11.13;7.78;;;23.60;49.80;;;;;;6178920;28;81432;-58
2024/03/12 09:40:53;;;;;;;12.90;8.20;;;23.60;49.70;;;;;;6179556;28;80433;-59
2024/03/12 09:43:54;;;;;;;10.85;7.63;;;23.60;49.60;;;;;;6192165;28;80658;-57
2024/03/12 09:46:55;;;;;;;12.30;8.15;;;23.60;49.70;;;;;;6178502;28;80534;-58
2024/03/12 09:49:55;;;;;;;13.15;8.25;;;23.60;49.60;;;;;;6178729;28;80819;-59
2024/03/12 09:52:56;;;;;;;13.35;8.48;;;23.60;49.50;;;;;;6180151;28;81081;-59
2024/03/12 09:55:59;;;;;;;10.63;8.40;;;23.60;49.40;;;;;;6178808;28;80406;-58
2024/03/12 09:59:00;;;;;;;15.80;8.38;;;23.60;49.50;;;;;;6178059;28;80935;-58
2024/03/12 10:02:01;;;;;;;15.45;8.45;;;23.60;49.40;;;;;;6179428;28;80525;-58
2024/03/12 10:05:01;;;;;;;12.82;7.53;;;23.70;49.50;;;;;;6186919;28;80351;-57
2024/03/12 10:08:02;;;;;;;11.57;8.15;;;23.70;49.40;;;;;;6176911;28;80499;-58
2024/03/12 10:11:07;;;;;;;12.32;8.88;;;23.70;49.40;;;;;;6178828;28;80493;-58
2024/03/12 10:14:09;;;;;;;10.27;7.63;;;23.70;49.30;;;;;;6177564;28;80541;-57
2024/03/12 10:17:13;;;;;;;10.73;8.10;;;23.70;49.20;;;;;;6178003;28;80356;-58
2024/03/12 10:20:15;;;;;;;13.00;8.38;;;23.70;49.30;;;;;;6177634;28;80322;-58
2024/03/12 10:23:16;;;;;;;11.65;7.95;;;23.70;49.30;;;;;;6178648;28;80558;-59
2024/03/12 10:26:17;;;;;;;12.95;8.68;;;23.70;49.30;;;;;;6177511;28;80973;-59
2024/03/12 10:29:18;;;;;;;13.32;8.68;;;23.70;49.40;;;;;;6177769;28;80596;-58
2024/03/12 10:32:18;;;;;;;15.05;8.90;;;23.70;49.30;;;;;;6179048;28;80360;-58
2024/03/12 10:35:19;;;;;;;11.32;8.57;;;23.70;49.30;;;;;;6177675;28;80586;-59
2024/03/12 10:38:20;;;;;;;13.60;8.80;;;23.70;49.30;;;;;;6178172;28;80296;-61
2024/03/12 10:41:20;;;;;;;12.45;8.68;;;23.70;49.20;;;;;;6176623;28;80622;-59
2024/03/12 10:44:21;;;;;;;14.95;9.27;;;23.70;49.10;;;;;;6179755;28;81875;-59
2024/03/12 10:47:23;;;;;;;15.27;8.98;;;23.70;49.10;;;;;;6178274;28;80839;-59
2024/03/12 10:50:24;;;;;;;13.38;9.18;;;23.70;49.20;;;;;;6178260;28;80724;-59
2024/03/12 10:53:24;;;;;;;14.27;9.13;;;23.70;49.20;;;;;;6177685;28;80231;-59
2024/03/12 10:56:25;;;;;;;11.43;8.63;;;23.70;49.10;;;;;;6176941;28;82285;-58
2024/03/12 10:59:26;;;;;;;12.27;8.80;;;23.70;49.10;;;;;;6177353;28;80425;-59
2024/03/12 11:02:27;;;;;;;12.75;8.75;;;23.70;49.10;;;;;;6176656;28;81453;-58
2024/03/12 11:05:28;;;;;;;14.63;9.40;;;23.70;49.10;;;;;;6176219;28;80523;-59
2024/03/12 11:08:28;;;;;;;13.55;9.52;;;23.70;49.10;;;;;;6178357;28;80686;-60
2024/03/12 11:11:29;;;;;;;13.05;9.45;;;23.70;49.10;;;;;;6177758;28;80828;-59
2024/03/12 11:14:29;;;;;;;14.65;8.80;;;23.80;49.10;;;;;;6176773;28;80930;-58
2024/03/12 11:17:31;;;;;;;14.00;9.77;;;23.70;49.10;;;;;;6176662;28;82839;-59
2024/03/12 11:20:33;;;;;;;14.23;9.10;;;23.80;49.10;;;;;;6177695;28;81717;-59
2024/03/12 11:23:33;;;;;;;13.45;9.02;;;23.70;49.10;;;;;;6176808;28;80402;-59
2024/03/12 11:26:35;;;;;;;13.57;8.95;;;23.80;49.10;;;;;;6177009;28;80359;-60
2024/03/12 11:29:37;;;;;;;10.82;8.73;;;23.70;49.00;;;;;;6176481;28;80374;-59
2024/03/12 11:32:37;;;;;;;13.35;9.60;;;23.80;49.10;;;;;;6176658;28;80582;-59
2024/03/12 11:35:38;;;;;;;13.50;8.88;;;23.80;49.00;;;;;;6190478;28;80592;-60
2024/03/12 11:38:38;;;;;;;16.48;9.77;;;23.70;48.90;;;;;;6177186;28;80658;-59
2024/03/12 11:41:39;;;;;;;14.48;9.55;;;23.80;49.00;;;;;;6174824;28;80312;-59
2024/03/12 11:44:40;;;;;;;14.23;9.07;;;23.70;49.00;;;;;;6178074;28;81669;-68
2024/03/12 11:47:42;;;;;;;14.30;9.73;;;23.80;49.10;;;;;;6188715;28;80867;-66
2024/03/12 11:50:43;;;;;;;12.85;9.18;;;23.80;49.00;;;;;;6190681;28;80445;-67
2024/03/12 11:53:44;;;;;;;15.18;9.13;;;23.80;49.00;;;;;;6189468;28;80604;-66
2024/03/12 11:56:45;;;;;;;13.35;9.73;;;23.80;49.00;;;;;;6178925;28;80666;-67
2024/03/12 11:59:46;;;;;;;14.25;9.82;;;23.80;49.00;;;;;;6176767;28;81478;-66
2024/03/12 12:02:46;;;;;;;14.95;10.10;;;23.80;49.00;;;;;;6177515;28;81323;-59
2024/03/12 12:05:47;;;;;;;14.68;9.45;;;23.80;49.00;;;;;;6173227;28;85579;-59
2024/03/12 12:08:48;;;;;;;14.55;10.50;;;23.80;49.00;;;;;;6169527;28;83686;-59
2024/03/12 12:11:48;;;;;;;12.52;8.98;;;23.80;49.00;;;;;;6172623;28;83017;-57
2024/03/12 12:14:49;;;;;;;14.57;9.75;;;23.80;49.00;;;;;;6177713;28;83458;-58
2024/03/12 12:17:51;;;;;;;15.68;9.77;;;23.80;49.00;;;;;;6177452;28;80312;-58
2024/03/12 12:20:52;;;;;;;12.88;9.50;;;23.70;49.00;;;;;;6177070;28;81424;-60
2024/03/12 12:23:52;;;;;;;15.68;10.38;;;23.70;49.00;;;;;;6176765;28;80567;-58
2024/03/12 12:26:55;;;;;;;15.60;9.85;;;23.80;49.20;;;;;;6173276;28;83252;-59
2024/03/12 12:29:56;;;;;;;17.08;10.85;;;23.80;49.10;;;;;;6176709;28;82891;-59
2024/03/12 12:32:56;;;;;;;14.25;9.73;;;23.70;49.10;;;;;;6173562;28;83884;-59
2024/03/12 12:35:57;;;;;;;15.75;10.90;;;23.80;49.10;;;;;;6175139;28;82985;-59
2024/03/12 12:39:00;;;;;;;16.25;9.38;;;23.70;49.00;;;;;;6173529;28;83150;-67
2024/03/12 12:42:01;;;;;;;15.65;9.70;;;23.80;49.10;;;;;;6179777;28;83053;-66
2024/03/12 12:45:04;;;;;;;16.20;10.40;;;23.80;49.10;;;;;;6178471;28;80943;-66
2024/03/12 12:48:07;;;;;;;13.63;9.65;;;23.70;49.00;;;;;;6174112;28;82677;-66
2024/03/12 12:51:07;;;;;;;13.77;9.60;;;23.80;49.00;;;;;;6185077;28;82997;-64
2024/03/12 12:54:09;;;;;;;12.82;8.82;;;23.70;49.00;;;;;;6191193;28;80483;-64
2024/03/12 12:57:10;;;;;;;14.10;9.20;;;23.70;49.00;;;;;;6193789;28;80562;-66
2024/03/12 13:00:15;;;;;;;14.30;9.18;;;23.80;49.10;;;;;;6191798;28;80383;-66
2024/03/12 13:03:16;;;;;;;12.30;8.15;;;23.80;49.10;;;;;;6181080;28;82286;-67
2024/03/12 13:06:16;;;;;;;10.80;7.43;;;23.70;49.00;;;;;;6180843;28;80623;-66
2024/03/12 13:09:17;;;;;;;11.32;7.53;;;23.80;49.00;;;;;;6179562;28;82758;-66
2024/03/12 13:12:18;;;;;;;12.13;7.80;;;23.80;49.00;;;;;;6180655;28;80926;-67
2024/03/12 13:15:19;;;;;;;10.23;7.43;;;23.70;49.00;;;;;;6180713;28;80368;-66
2024/03/12 13:18:19;;;;;;;13.40;7.57;;;23.80;49.00;;;;;;6180614;28;80687;-66
2024/03/12 13:21:21;;;;;;;11.90;7.88;;;23.80;49.00;;;;;;6181069;28;80182;-66
2024/03/12 13:24:22;;;;;;;12.02;7.72;;;23.80;48.90;;;;;;6169427;28;80956;-67
2024/03/12 13:27:22;;;;;;;10.55;7.25;;;23.70;48.90;;;;;;6181477;28;81686;-64
2024/03/12 13:30:24;;;;;;;10.93;7.68;;;23.80;49.00;;;;;;6179206;28;80406;-65
2024/03/12 13:33:25;;;;;;;10.05;7.70;;;23.80;49.00;;;;;;6180710;28;81289;-65
2024/03/12 13:36:27;;;;;;;10.98;8.00;;;23.80;49.00;;;;;;6180175;28;80449;-58
2024/03/12 13:39:29;;;;;;;10.10;7.38;;;23.70;49.00;;;;;;6179879;28;80904;-57
2024/03/12 13:42:29;;;;;;;11.65;7.55;;;23.80;48.90;;;;;;6179147;28;80390;-58
2024/03/12 13:45:30;;;;;;;11.10;7.50;;;23.70;48.90;;;;;;6178508;28;80561;-57
2024/03/12 13:48:31;;;;;;;11.02;7.35;;;23.70;48.90;;;;;;6177967;28;80436;-56
2024/03/12 13:51:31;;;;;;;12.27;8.40;;;23.70;48.90;;;;;;6185519;28;80465;-57
2024/03/12 13:54:32;;;;;;;12.27;8.13;;;23.70;48.90;;;;;;6174127;28;81720;-59
2024/03/12 13:57:32;;;;;;;12.05;8.60;;;23.70;48.80;;;;;;6177904;28;81325;-59
2024/03/12 14:00:33;;;;;;;17.30;8.20;;;23.70;48.80;;;;;;6169808;28;82225;-57
2024/03/12 14:03:33;;;;;;;13.85;7.60;;;23.70;50.50;;;;;;6167918;28;80290;-57
2024/03/12 14:06:34;;;;;;;11.52;7.70;;;23.80;49.50;;;;;;6177471;28;82837;-58
2024/03/12 14:09:35;;;;;;;14.50;7.53;;;23.80;49.60;;;;;;6180982;28;80507;-58
2024/03/12 14:12:35;;;;;;;11.23;7.45;;;23.80;49.60;;;;;;6178714;28;80712;-56
2024/03/12 14:15:37;;;;;;;13.75;7.68;;;23.80;49.60;;;;;;6175985;28;82951;-55
2024/03/12 14:18:37;;;;;;;13.85;7.93;;;23.80;49.50;;;;;;6179513;28;81425;-59
2024/03/12 14:21:38;;;;;;;16.83;7.95;;;23.80;49.50;;;;;;6190707;28;80666;-57
2024/03/12 14:24:38;;;;;;;19.45;7.35;;;23.90;49.60;;;;;;6187570;28;80402;-55
2024/03/12 14:27:39;;;;;;;15.32;8.38;;;23.90;49.80;;;;;;6178389;28;80797;-55
2024/03/12 14:30:39;;;;;;;16.98;7.88;;;23.90;49.90;;;;;;6177680;28;81933;-66
2024/03/12 14:33:40;;;;;;;16.48;7.82;;;23.90;49.90;;;;;;6179267;28;80170;-65
2024/03/12 14:36:40;;;;;;;12.40;8.20;;;23.90;49.80;;;;;;6180963;28;87529;-65
2024/03/12 14:39:41;;;;;;;11.50;7.63;;;23.90;49.90;;;;;;6180144;28;80309;-65
2024/03/12 14:42:42;;;;;;;14.57;8.55;;;23.90;49.90;;;;;;6179485;28;81961;-64
2024/03/12 14:45:43;;;;;;;9.77;7.18;;;24.00;50.10;;;;;;6191426;28;81881;-67
2024/03/12 14:48:44;;;;;;;14.10;9.18;;;24.00;50.00;;;;;;6180778;28;80678;-58
2024/03/12 14:51:44;;;;;;;10.40;7.32;;;24.00;50.00;;;;;;6179760;28;80023;-58
2024/03/12 14:54:45;;;;;;;13.25;7.65;;;24.00;50.00;;;;;;6179993;28;81181;-57
2024/03/12 14:57:46;;;;;;;15.23;7.72;;;24.00;50.00;;;;;;6174719;28;86103;-58
2024/03/12 15:00:46;;;;;;;13.18;8.60;;;24.00;50.00;;;;;;6178216;28;80282;-58
2024/03/12 15:03:47;;;;;;;13.02;7.95;;;24.00;50.10;;;;;;6178661;28;81266;-58
2024/03/12 15:06:47;;;;;;;13.23;8.52;;;24.00;50.00;;;;;;6177961;28;80079;-68
2024/03/12 15:09:48;;;;;;;10.88;7.97;;;24.00;50.00;;;;;;6181248;28;80396;-67
2024/03/12 15:12:48;;;;;;;11.63;7.95;;;24.00;50.00;;;;;;6173774;28;87524;-65
2024/03/12 15:15:49;;;;;;;8.65;7.40;;;24.00;50.00;;;;;;6180320;28;80488;-66
2024/03/12 15:18:50;;;;;;;10.52;7.85;;;24.00;49.90;;;;;;6177795;28;80984;-65
2024/03/12 15:21:51;;;;;;;12.55;7.55;;;24.00;50.00;;;;;;6182292;28;86595;-63
2024/03/12 15:24:51;;;;;;;13.80;8.13;;;24.00;50.00;;;;;;6179538;28;80114;-56
2024/03/12 15:27:52;;;;;;;12.23;8.07;;;24.00;50.00;;;;;;6175056;28;81635;-56
2024/03/12 15:30:53;;;;;;;12.18;7.32;;;24.00;50.00;;;;;;6178910;28;81311;-57
2024/03/12 15:33:53;;;;;;;13.35;8.68;;;24.00;50.10;;;;;;6179427;28;82751;-56
2024/03/12 15:36:54;;;;;;;11.60;7.80;;;24.00;50.30;;;;;;6177980;28;81310;-57